createdAt,value
2023-05-09T00:01:04.148Z,0
2023-05-09T00:05:39.555Z,0
2023-05-09T00:10:39.041Z,0
2023-05-09T00:15:39.256Z,0
2023-05-09T00:20:38.469Z,0
2023-05-09T00:25:39.421Z,0
2023-05-09T00:30:36.044Z,0
2023-05-09T00:35:36.196Z,0
2023-05-09T00:40:35.331Z,0
2023-05-09T00:45:35.542Z,0
2023-05-09T00:50:33.419Z,0
2023-05-09T00:55:33.546Z,0
2023-05-09T01:00:05.118Z,0
2023-05-09T01:05:06.291Z,0
2023-05-09T01:10:02.527Z,0
2023-05-09T01:15:02.432Z,0
2023-05-09T01:20:01.648Z,0
2023-05-09T01:25:01.765Z,0
2023-05-09T01:29:59.415Z,0
2023-05-09T01:34:58.703Z,0
2023-05-09T01:39:58.360Z,0
2023-05-09T01:44:57.822Z,0
2023-05-09T01:49:57.247Z,0
2023-05-09T01:54:56.953Z,0
2023-05-09T02:24:41.945Z,0
2023-05-09T02:29:41.944Z,0
2023-05-09T02:34:41.787Z,0
2023-05-09T02:39:41.575Z,0
2023-05-09T02:44:39.203Z,0
2023-05-09T02:49:52.942Z,0
2023-05-09T02:54:37.746Z,0
2023-05-09T04:01:17.705Z,0
2023-05-09T04:05:52.358Z,0
2023-05-09T04:10:52.060Z,0
2023-05-09T04:15:51.395Z,0
2023-05-09T04:20:50.799Z,0
2023-05-09T04:25:50.644Z,0
2023-05-09T04:30:50.921Z,0
2023-05-09T04:35:52.213Z,0
2023-05-09T04:40:52.180Z,0
2023-05-09T04:45:58.301Z,0
2023-05-09T04:50:57.436Z,0
2023-05-09T04:55:58.175Z,0.01
2023-05-09T05:19:59.082Z,0.03
2023-05-09T05:29:58.535Z,0.04
2023-05-09T05:35:00.311Z,0.05
2023-05-09T05:39:57.774Z,0.05
2023-05-09T05:44:57.287Z,0.05
2023-05-09T05:49:58.055Z,0.05
2023-05-09T05:54:54.906Z,0.05
2023-05-09T06:04:56.542Z,0.07
2023-05-09T06:09:53.724Z,0.05
2023-05-09T06:19:52.942Z,0.06
2023-05-09T06:25:20.780Z,0.06
2023-05-09T06:34:40.346Z,0.08
2023-05-09T06:39:40.138Z,0.1
2023-05-09T06:49:39.116Z,0.1
2023-05-09T06:54:39.339Z,0.12
2023-05-09T09:01:14.220Z,0.4
2023-05-09T09:06:16.713Z,0.44
2023-05-09T09:10:56.860Z,0.46
2023-05-09T09:15:56.444Z,0.45
2023-05-09T09:20:55.657Z,0.41
2023-05-09T09:25:55.592Z,0.45
2023-05-09T09:30:56.106Z,0.44
2023-05-09T09:35:56.934Z,0.48
2023-05-09T09:40:54.044Z,0.47
2023-05-09T09:45:53.722Z,0.45
2023-05-09T09:50:55.772Z,0.47
2023-05-09T09:55:41.854Z,0.55
2023-05-09T09:59:58.118Z,0.63
2023-05-09T10:04:59.197Z,0.66
2023-05-09T10:09:57.686Z,0.6
2023-05-09T10:14:58.002Z,0.84
2023-05-09T10:19:57.859Z,0.83
2023-05-09T10:24:59.300Z,0.68
2023-05-09T10:29:56.610Z,0.41
2023-05-09T10:34:56.824Z,0.25
2023-05-09T10:39:55.530Z,0.17
2023-05-09T10:44:55.709Z,0.21
2023-05-09T10:49:58.219Z,0.23
2023-05-09T10:55:37.426Z,0.24
2023-05-09T11:44:41.782Z,0.18
2023-05-09T11:49:44.143Z,0.23
2023-05-09T11:54:41.366Z,0.27
2023-05-09T11:59:40.773Z,0.31
2023-05-09T12:34:35.248Z,0.41
2023-05-09T14:05:55.020Z,0.29
2023-05-09T14:10:57.814Z,0.33
2023-05-09T14:15:57.175Z,0.38
2023-05-09T14:20:55.177Z,0.38
2023-05-09T14:25:41.990Z,0.35
2023-05-09T14:30:41.849Z,0.33
2023-05-09T14:35:43.054Z,0.32
2023-05-09T14:40:39.726Z,0.31
2023-05-09T14:45:39.710Z,0.27
2023-05-09T14:50:39.402Z,0.25
2023-05-09T14:55:38.917Z,0.23
2023-05-09T15:27:04.096Z,0.17
2023-05-09T15:44:41.460Z,0.13
2023-05-09T15:49:41.273Z,0.12
2023-05-09T15:54:41.321Z,0.12
2023-05-09T18:01:11.712Z,0.01
2023-05-09T18:05:58.469Z,0.01
2023-05-09T18:10:53.687Z,0
2023-05-09T18:15:53.371Z,0
2023-05-09T18:20:55.587Z,0
2023-05-09T18:25:41.130Z,0
2023-05-09T18:30:41.221Z,0
2023-05-09T18:35:40.126Z,0
2023-05-09T18:40:40.145Z,0
2023-05-09T18:45:38.101Z,0
2023-05-09T18:50:38.087Z,0
2023-05-09T18:55:37.872Z,0
2023-05-09T22:01:12.991Z,0
2023-05-09T22:05:58.500Z,0
2023-05-09T22:10:58.877Z,0
2023-05-09T22:15:59.042Z,0
2023-05-09T22:20:56.509Z,0
2023-05-09T22:25:55.800Z,0
2023-05-09T22:30:57.882Z,0
2023-05-09T22:35:54.470Z,0
2023-05-09T22:40:53.782Z,0
2023-05-09T22:45:54.015Z,0
2023-05-09T22:50:41.693Z,0
2023-05-09T22:55:41.009Z,0
2023-05-09T23:04:48.799Z,0
